Time;durP1;ratioP1;P1;durP2;ratioP2;P2;SDS_P1;SDS_P2;PMS_P1;PMS_P2;Temp;Humidity;BMP_temperature;BMP_pressure;BME280_temperature;BME280_humidity;BME280_pressure;Samples;Min_cycle;Max_cycle;Signal;HPM_P1;HPM_P2
2023/02/11 00:01:44;;;;;;;20.80;9.20;;;;;;;-0.61;100.00;102134.23;109910;1246;72293;-85
2023/02/11 00:04:32;;;;;;;22.80;10.30;;;;;;;-0.59;100.00;102138.23;109843;1246;59543;-84
2023/02/11 00:07:21;;;;;;;19.50;9.70;;;;;;;-0.56;100.00;102135.98;109888;1246;60934;-85
2023/02/11 00:10:09;;;;;;;20.20;10.50;;;;;;;-0.45;100.00;102136.98;109895;1246;74890;-84
2023/02/11 00:12:58;;;;;;;19.80;10.30;;;;;;;-0.45;100.00;102139.64;109851;1246;69839;-84
2023/02/11 00:15:51;;;;;;;24.60;10.10;;;;;;;-0.43;100.00;102143.94;109887;1247;71853;-84
2023/02/11 00:18:40;;;;;;;20.30;9.60;;;;;;;-0.40;100.00;102150.80;109838;1245;62725;-82
2023/02/11 00:21:30;;;;;;;23.30;11.10;;;;;;;-0.31;100.00;102145.80;109744;1246;60707;-83
2023/02/11 00:24:18;;;;;;;20.40;9.90;;;;;;;-0.36;100.00;102144.96;109882;1247;75829;-84
2023/02/11 00:27:07;;;;;;;24.30;10.30;;;;;;;-0.38;100.00;102145.50;109994;1246;69262;-83
2023/02/11 00:29:56;;;;;;;24.20;9.30;;;;;;;-0.31;100.00;102142.21;109845;1246;73671;-83
2023/02/11 00:32:46;;;;;;;18.20;9.10;;;;;;;-0.27;100.00;102141.66;109896;1247;63157;-83
2023/02/11 00:35:36;;;;;;;27.00;10.80;;;;;;;-0.32;100.00;102139.29;109846;1246;59165;-83
2023/02/11 00:38:25;;;;;;;22.20;9.30;;;;;;;-0.33;100.00;102134.02;109919;1245;75048;-84
2023/02/11 00:41:14;;;;;;;20.50;10.10;;;;;;;-0.27;100.00;102135.53;109960;1246;69038;-83
2023/02/11 00:44:03;;;;;;;19.70;9.60;;;;;;;-0.25;100.00;102142.69;109948;1246;72953;-83
2023/02/11 00:46:52;;;;;;;22.80;10.60;;;;;;;-0.17;100.00;102145.76;109869;1246;59556;-83
2023/02/11 00:49:40;;;;;;;24.30;9.20;;;;;;;-0.06;100.00;102144.00;109973;1249;60639;-84
2023/02/11 00:52:31;;;;;;;22.80;10.20;;;;;;;-0.12;100.00;102147.04;109761;1246;74681;-83
2023/02/11 00:55:20;;;;;;;21.70;9.90;;;;;;;-0.19;100.00;102149.73;109941;1246;68362;-84
2023/02/11 00:58:10;;;;;;;21.20;10.00;;;;;;;-0.10;100.00;102150.87;109677;1246;71947;-84
2023/02/11 01:00:59;;;;;;;21.20;10.40;;;;;;;-0.11;100.00;102150.23;109863;1246;63188;-83
2023/02/11 01:03:48;;;;;;;17.90;9.40;;;;;;;-0.11;100.00;102152.05;109840;1248;59025;-83
2023/02/11 01:06:36;;;;;;;21.90;9.50;;;;;;;-0.11;100.00;102151.66;109804;1250;74514;-83
2023/02/11 01:09:26;;;;;;;27.10;9.60;;;;;;;-0.05;100.00;102149.29;109756;1246;67229;-83
2023/02/11 01:12:14;;;;;;;17.70;9.00;;;;;;;-0.09;100.00;102154.52;109872;1247;71473;-83
2023/02/11 01:15:04;;;;;;;28.10;10.80;;;;;;;-0.07;100.00;102151.11;109738;1246;61072;-83
2023/02/11 01:17:53;;;;;;;21.30;10.30;;;;;;;-0.08;100.00;102155.70;109845;1246;59398;-83
2023/02/11 01:20:42;;;;;;;24.40;10.00;;;;;;;-0.07;100.00;102145.85;109881;1246;72659;-83
2023/02/11 01:23:31;;;;;;;20.60;9.40;;;;;;;-0.04;100.00;102149.48;109841;1246;69416;-83
2023/02/11 01:26:20;;;;;;;21.10;10.10;;;;;;;-0.07;100.00;102147.91;109842;1246;71346;-83
2023/02/11 01:29:08;;;;;;;20.70;9.80;;;;;;;-0.06;100.00;102144.17;109836;1247;59808;-83
2023/02/11 01:31:57;;;;;;;22.30;10.50;;;;;;;0.02;100.00;102142.63;109927;1247;61089;-84
2023/02/11 01:34:50;;;;;;;;;;;;;;;0.08;100.00;102142.34;109882;1246;72464;-83
2023/02/11 01:37:38;;;;;;;20.80;10.50;;;;;;;0.10;100.00;102140.70;109928;1247;69294;-83
2023/02/11 01:40:27;;;;;;;18.50;8.50;;;;;;;0.07;100.00;102133.46;109890;1247;70669;-83
2023/02/11 01:43:16;;;;;;;21.90;9.60;;;;;;;0.08;100.00;102138.34;109867;1248;58958;-83
2023/02/11 01:46:20;;;;;;;22.50;9.00;;;;;;;0.06;100.00;102136.09;109869;1246;59409;-84
2023/02/11 01:49:15;;;;;;;22.40;10.00;;;;;;;0.07;100.00;102142.10;109912;1247;74521;-83
2023/02/11 01:52:20;;;;;;;18.40;9.20;;;;;;;-0.02;100.00;102137.80;109815;1246;69251;-84
2023/02/11 01:58:17;;;;;;;19.70;8.90;;;;;;;-0.09;100.00;102135.31;109726;1245;59339;-84
2023/02/11 02:01:05;;;;;;;21.80;10.40;;;;;;;-0.05;100.00;102132.95;109795;1246;59305;-84
2023/02/11 02:03:55;;;;;;;26.20;10.50;;;;;;;0.00;100.00;102136.32;109639;1250;75858;-83
2023/02/11 02:06:52;;;;;;;18.90;10.20;;;;;;;0.11;100.00;102131.17;109740;1246;68924;-84
2023/02/11 02:09:43;;;;;;;22.00;9.30;;;;;;;0.19;100.00;102125.29;109698;1245;73101;-84
2023/02/11 02:12:33;;;;;;;25.80;9.70;;;;;;;0.08;100.00;102119.52;109772;1249;59088;-83
2023/02/11 02:15:22;;;;;;;21.00;9.30;;;;;;;0.08;100.00;102125.13;109936;1247;59446;-83
2023/02/11 02:18:34;;;;;;;20.50;9.60;;;;;;;0.13;100.00;102120.75;109837;1249;74322;-83
2023/02/11 02:21:54;;;;;;;19.50;9.20;;;;;;;0.05;100.00;102122.58;109849;1245;69282;-83
2023/02/11 02:24:59;;;;;;;21.30;9.40;;;;;;;-0.03;100.00;102123.45;109859;1246;72582;-83
2023/02/11 02:28:02;;;;;;;20.20;10.20;;;;;;;-0.01;100.00;102124.25;109777;1246;59371;-84
2023/02/11 02:30:53;;;;;;;21.60;9.50;;;;;;;0.00;100.00;102123.63;109741;1246;60638;-83
2023/02/11 02:33:45;;;;;;;23.20;9.80;;;;;;;0.07;100.00;102124.12;109722;1246;72870;-84
2023/02/11 02:36:53;;;;;;;19.30;8.40;;;;;;;0.11;100.00;102127.98;109899;1246;69193;-83
2023/02/11 02:39:41;;;;;;;26.60;10.70;;;;;;;0.10;100.00;102135.94;109759;1247;71396;-84
2023/02/11 02:42:30;;;;;;;27.90;10.70;;;;;;;0.18;100.00;102137.42;109765;1246;61396;-84
2023/02/11 02:45:19;;;;;;;21.00;9.90;;;;;;;0.25;100.00;102136.10;109867;1246;60244;-83
2023/02/11 02:48:29;;;;;;;23.70;10.00;;;;;;;0.15;100.00;102135.58;109880;1246;74579;-83
2023/02/11 02:51:29;;;;;;;21.90;9.60;;;;;;;0.13;100.00;102136.25;109734;1249;69370;-84
2023/02/11 02:54:55;;;;;;;24.90;10.40;;;;;;;0.19;100.00;102135.58;109816;1246;73013;-83
2023/02/11 02:57:53;;;;;;;20.80;10.30;;;;;;;0.21;100.00;102132.61;109804;1247;59562;-83
2023/02/11 03:00:48;;;;;;;23.40;10.80;;;;;;;0.19;100.00;102134.13;109916;1247;60064;-83
2023/02/11 03:04:07;;;;;;;24.60;9.80;;;;;;;0.10;100.00;102132.38;109888;1246;75086;-84
2023/02/11 03:06:56;;;;;;;22.70;9.40;;;;;;;0.10;100.00;102127.71;109875;1248;67865;-84
2023/02/11 03:09:54;;;;;;;22.10;10.40;;;;;;;0.08;100.00;102127.27;109875;1247;73625;-84
2023/02/11 03:12:43;;;;;;;24.30;11.00;;;;;;;0.08;100.00;102129.89;109733;1246;59310;-83
2023/02/11 03:15:33;;;;;;;22.80;9.50;;;;;;;0.19;100.00;102126.94;109734;1245;59589;-83
2023/02/11 03:18:24;;;;;;;23.80;10.30;;;;;;;0.21;100.00;102122.92;110027;1247;72725;-84
2023/02/11 03:21:13;;;;;;;23.20;10.20;;;;;;;0.20;100.00;102121.56;109755;1246;69209;-83
2023/02/11 03:24:04;;;;;;;21.10;10.00;;;;;;;0.14;100.00;102115.48;109693;1246;73130;-83
2023/02/11 03:26:54;;;;;;;26.20;10.70;;;;;;;0.10;100.00;102108.89;109937;1247;59247;-83
2023/02/11 03:30:09;;;;;;;24.70;10.50;;;;;;;0.13;100.00;102104.13;109814;1251;59677;-84
2023/02/11 03:33:01;;;;;;;22.40;9.70;;;;;;;0.22;100.00;102098.08;109705;1247;75837;-83
2023/02/11 03:35:53;;;;;;;22.30;9.30;;;;;;;0.18;100.00;102102.11;109692;1247;68211;-83
2023/02/11 03:38:45;;;;;;;19.90;9.90;;;;;;;0.17;100.00;102102.55;109836;1246;73067;-83
2023/02/11 03:41:34;;;;;;;24.70;10.90;;;;;;;0.18;100.00;102102.60;109696;1247;60333;-84
2023/02/11 03:44:24;;;;;;;25.70;10.20;;;;;;;0.25;100.00;102102.59;109802;1248;61496;-84
2023/02/11 03:47:12;;;;;;;20.30;9.80;;;;;;;0.22;100.00;102093.80;109725;1245;74817;-84
2023/02/11 03:50:03;;;;;;;23.90;9.60;;;;;;;0.29;100.00;102084.06;109847;1247;69015;-84
2023/02/11 03:52:52;;;;;;;28.40;12.50;;;;;;;0.24;100.00;102086.52;109858;1248;72268;-83
2023/02/11 03:55:41;;;;;;;27.60;12.70;;;;;;;0.24;100.00;102086.63;109837;1250;59433;-84
2023/02/11 03:58:29;;;;;;;21.60;8.80;;;;;;;0.20;100.00;102083.04;109636;1251;60137;-84
2023/02/11 04:01:18;;;;;;;19.70;9.50;;;;;;;0.14;100.00;102090.08;109864;1247;74987;-83
2023/02/11 04:04:07;;;;;;;24.00;10.90;;;;;;;0.19;100.00;102090.77;109863;1246;69382;-84
2023/02/11 04:06:56;;;;;;;20.20;9.20;;;;;;;0.27;100.00;102090.58;109901;1248;71354;-84
2023/02/11 04:09:45;;;;;;;20.70;9.20;;;;;;;0.36;100.00;102085.39;109859;1247;59938;-83
2023/02/11 04:12:34;;;;;;;31.20;12.50;;;;;;;0.38;100.00;102083.07;109874;1248;60655;-83
2023/02/11 04:15:23;;;;;;;24.20;11.30;;;;;;;0.35;100.00;102080.11;109919;1245;74970;-84
2023/02/11 04:18:13;;;;;;;26.00;10.40;;;;;;;0.34;100.00;102073.59;109907;1246;68633;-83
2023/02/11 04:21:01;;;;;;;25.60;10.10;;;;;;;0.34;100.00;102070.39;109856;1246;71087;-84
2023/02/11 04:23:52;;;;;;;22.30;9.80;;;;;;;0.34;100.00;102070.70;109826;1248;59247;-84
2023/02/11 04:26:41;;;;;;;24.70;11.30;;;;;;;0.36;100.00;102070.20;109935;1247;61108;-84
2023/02/11 04:29:30;;;;;;;26.20;12.20;;;;;;;0.37;100.00;102072.05;109859;1246;75932;-84
2023/02/11 04:32:19;;;;;;;25.60;10.40;;;;;;;0.35;100.00;102068.48;109813;1247;66355;-83
2023/02/11 04:35:08;;;;;;;37.20;13.70;;;;;;;0.36;100.00;102066.73;109821;1247;74307;-84
2023/02/11 04:37:57;;;;;;;24.30;10.70;;;;;;;0.39;100.00;102060.53;109950;1249;59268;-84
2023/02/11 04:40:46;;;;;;;22.70;10.80;;;;;;;0.48;100.00;102058.63;109985;1246;60447;-84
2023/02/11 04:43:34;;;;;;;21.70;9.70;;;;;;;0.53;100.00;102054.64;109851;1245;75780;-84
2023/02/11 04:46:23;;;;;;;22.40;11.20;;;;;;;0.57;100.00;102048.48;109942;1248;68874;-84
2023/02/11 04:49:13;;;;;;;22.90;10.20;;;;;;;0.60;100.00;102047.80;110006;1247;72755;-84
2023/02/11 04:52:01;;;;;;;23.90;9.80;;;;;;;0.57;100.00;102051.46;109932;1247;60648;-84
2023/02/11 04:54:50;;;;;;;24.50;11.10;;;;;;;0.53;100.00;102057.33;109929;1246;60248;-84
2023/02/11 04:57:39;;;;;;;24.30;9.70;;;;;;;0.56;100.00;102051.03;109879;1248;75431;-84
2023/02/11 05:00:29;;;;;;;26.40;10.20;;;;;;;0.60;100.00;102046.14;110012;1248;69012;-84
2023/02/11 05:03:17;;;;;;;21.30;10.20;;;;;;;0.60;100.00;102045.77;109865;1247;72600;-83
2023/02/11 05:06:06;;;;;;;28.60;10.10;;;;;;;0.60;100.00;102042.91;109878;1246;58999;-83
2023/02/11 05:08:55;;;;;;;21.20;10.50;;;;;;;0.53;100.00;102051.81;109912;1247;61567;-84
2023/02/11 05:11:44;;;;;;;25.40;10.90;;;;;;;0.55;100.00;102052.48;109871;1246;75128;-84
2023/02/11 05:14:33;;;;;;;25.60;11.10;;;;;;;0.56;100.00;102047.42;109757;1247;68536;-84
2023/02/11 05:17:21;;;;;;;22.50;10.10;;;;;;;0.58;100.00;102046.19;109911;1247;72172;-84
2023/02/11 05:20:10;;;;;;;26.00;9.80;;;;;;;0.58;100.00;102046.59;109963;1245;59478;-84
2023/02/11 05:22:59;;;;;;;25.80;10.90;;;;;;;0.52;100.00;102050.48;109950;1248;60061;-83
2023/02/11 05:25:47;;;;;;;20.00;9.60;;;;;;;0.53;100.00;102043.27;109862;1247;75015;-83
2023/02/11 05:28:37;;;;;;;23.00;10.20;;;;;;;0.58;100.00;102041.00;109931;1246;68700;-84
2023/02/11 05:31:26;;;;;;;23.70;9.80;;;;;;;0.60;100.00;102040.23;109828;1248;72827;-84
2023/02/11 05:34:14;;;;;;;27.60;10.70;;;;;;;0.57;100.00;102042.02;109888;1247;59010;-84
2023/02/11 05:37:03;;;;;;;19.30;9.30;;;;;;;0.58;100.00;102041.10;109822;1247;59041;-85
2023/02/11 05:39:52;;;;;;;26.60;12.50;;;;;;;0.62;100.00;102043.98;109907;1246;75862;-86
2023/02/11 05:46:14;;;;;;;24.20;10.50;;;;;;;0.70;100.00;102044.61;109357;1250;71629;31
2023/02/11 05:49:04;;;;;;;27.00;10.10;;;;;;;0.80;100.00;102039.86;108786;1255;61694;-80
2023/02/11 05:52:21;;;;;;;25.60;12.70;;;;;;;0.84;100.00;102037.08;107147;1256;61615;-83
2023/02/11 05:55:45;;;;;;;22.60;9.60;;;;;;;0.78;100.00;102037.41;108787;1257;75841;-79
2023/02/11 05:58:34;;;;;;;22.10;9.80;;;;;;;0.82;100.00;102035.55;108894;1257;69082;-79
2023/02/11 06:01:23;;;;;;;23.80;8.70;;;;;;;0.74;100.00;102026.14;108872;1257;72382;-79
2023/02/11 06:04:12;;;;;;;22.10;10.30;;;;;;;0.70;100.00;102029.38;108882;1257;59698;-78
2023/02/11 06:07:05;;;;;;;23.20;10.40;;;;;;;0.81;100.00;102026.70;108856;1257;61133;-79
2023/02/11 06:09:54;;;;;;;28.00;11.00;;;;;;;0.86;100.00;102025.93;108844;1258;73465;-78
2023/02/11 06:12:43;;;;;;;21.70;10.50;;;;;;;0.86;100.00;102025.55;108843;1258;69434;-78
2023/02/11 06:15:33;;;;;;;22.20;9.90;;;;;;;0.88;100.00;102023.23;108756;1257;73102;-78
2023/02/11 06:18:22;;;;;;;23.10;9.50;;;;;;;0.92;100.00;102022.44;108839;1258;59473;-80
2023/02/11 06:21:12;;;;;;;20.20;9.10;;;;;;;0.96;100.00;102018.84;108775;1257;59737;-80
2023/02/11 06:24:02;;;;;;;24.50;9.40;;;;;;;0.97;100.00;102016.77;108861;1257;76135;-80
2023/02/11 06:26:51;;;;;;;25.80;10.60;;;;;;;1.00;100.00;102010.48;108883;1257;69584;-80
2023/02/11 06:29:40;;;;;;;31.60;12.70;;;;;;;1.13;100.00;102010.59;108997;1257;73870;-80
2023/02/11 06:32:30;;;;;;;47.10;20.80;;;;;;;1.32;100.00;102017.60;108996;1257;60039;-77
2023/02/11 06:35:37;;;;;;;23.10;10.70;;;;;;;1.41;100.00;102017.98;108992;1258;59109;-78
2023/02/11 06:38:27;;;;;;;28.00;10.80;;;;;;;1.45;100.00;102018.94;108967;1256;74513;-79
2023/02/11 06:41:18;;;;;;;20.90;10.30;;;;;;;1.64;100.00;102020.59;108994;1257;69183;-79
2023/02/11 06:44:07;;;;;;;26.60;10.60;;;;;;;1.61;100.00;102021.44;108895;1257;72703;-79
2023/02/11 06:46:59;;;;;;;27.10;10.60;;;;;;;1.70;100.00;102017.19;108972;1259;59034;-79
2023/02/11 06:49:49;;;;;;;23.40;10.40;;;;;;;1.75;100.00;102016.45;109004;1259;62219;-79
2023/02/11 06:52:38;;;;;;;24.40;11.10;;;;;;;1.81;100.00;102012.33;108952;1259;75841;-79
2023/02/11 06:55:27;;;;;;;21.60;9.40;;;;;;;1.95;100.00;102004.64;108982;1258;70576;-79
2023/02/11 06:58:17;;;;;;;24.80;10.30;;;;;;;2.04;100.00;102000.14;108963;1257;73343;-79
2023/02/11 07:01:07;;;;;;;25.10;11.10;;;;;;;2.00;100.00;101996.00;108866;1258;59815;-79
2023/02/11 07:03:56;;;;;;;25.50;11.10;;;;;;;1.83;100.00;101995.33;108998;1257;59479;-79
2023/02/11 07:06:45;;;;;;;25.60;11.50;;;;;;;1.88;100.00;101992.17;108999;1257;73704;-79
2023/02/11 07:09:34;;;;;;;20.80;9.70;;;;;;;1.96;100.00;101995.40;109006;1258;68697;-79
2023/02/11 07:12:30;;;;;;;23.20;10.40;;;;;;;1.96;100.00;101990.76;108873;1258;71540;-79
2023/02/11 07:15:19;;;;;;;25.20;9.60;;;;;;;2.07;100.00;101985.95;108884;1258;59061;-79
2023/02/11 07:18:08;;;;;;;22.80;10.20;;;;;;;2.07;100.00;101987.10;109020;1257;61199;-79
2023/02/11 07:20:57;;;;;;;149.20;58.80;;;;;;;2.17;100.00;101988.06;108996;1257;75803;-79
2023/02/11 07:23:47;;;;;;;51.80;26.00;;;;;;;2.25;100.00;101977.35;108987;1257;69599;-79
2023/02/11 07:26:40;;;;;;;38.10;19.80;;;;;;;2.39;100.00;101971.61;108938;1258;72616;-79
2023/02/11 07:29:30;;;;;;;34.00;16.10;;;;;;;2.46;100.00;101971.48;108969;1257;61562;-79
2023/02/11 07:32:19;;;;;;;24.70;13.00;;;;;;;2.53;100.00;101968.70;108987;1258;60787;-79
2023/02/11 07:35:08;;;;;;;35.90;17.20;;;;;;;2.50;100.00;101972.70;108938;1257;76201;-80
2023/02/11 07:37:58;;;;;;;109.30;50.60;;;;;;;2.60;100.00;101967.33;108900;1257;69150;-80
2023/02/11 07:40:48;;;;;;;154.30;71.10;;;;;;;2.65;100.00;101963.23;108875;1259;73429;-80
2023/02/11 07:43:37;;;;;;;27.60;13.50;;;;;;;2.71;100.00;101953.54;108884;1257;60085;-80
2023/02/11 07:46:26;;;;;;;44.70;19.20;;;;;;;2.73;100.00;101949.00;108909;1260;61209;-80
2023/02/11 07:49:15;;;;;;;70.80;30.70;;;;;;;2.78;100.00;101941.91;109006;1257;75932;-81
2023/02/11 07:52:04;;;;;;;237.00;87.00;;;;;;;2.89;100.00;101942.73;108982;1259;67822;-81
2023/02/11 07:54:56;;;;;;;86.30;32.70;;;;;;;2.95;100.00;101945.48;108974;1259;72387;-81
2023/02/11 07:57:45;;;;;;;58.00;22.60;;;;;;;2.99;100.00;101941.80;109003;1257;59145;-82
2023/02/11 08:00:35;;;;;;;164.00;57.20;;;;;;;3.01;100.00;101936.22;108986;1259;59577;-82
2023/02/11 08:03:23;;;;;;;57.60;22.40;;;;;;;3.03;100.00;101934.65;108889;1257;76403;-82
2023/02/11 08:06:14;;;;;;;159.40;52.10;;;;;;;3.08;100.00;101930.87;108858;1258;67793;-82
2023/02/11 08:09:05;;;;;;;46.00;17.90;;;;;;;3.05;100.00;101927.29;108873;1257;71518;-82
2023/02/11 08:11:55;;;;;;;31.60;13.50;;;;;;;2.92;100.00;101919.41;108878;1257;59152;-80
2023/02/11 08:14:44;;;;;;;33.80;14.50;;;;;;;2.96;100.00;101917.98;108871;1257;61409;-82
2023/02/11 08:17:34;;;;;;;32.60;13.60;;;;;;;3.04;100.00;101916.54;108877;1257;73299;-82
2023/02/11 08:20:23;;;;;;;37.60;14.30;;;;;;;2.95;100.00;101907.99;108875;1257;68739;-82
2023/02/11 08:23:12;;;;;;;57.60;20.40;;;;;;;2.96;100.00;101905.25;108945;1258;71650;-82
2023/02/11 08:26:02;;;;;;;87.80;30.40;;;;;;;2.99;100.00;101905.16;108986;1257;59300;-82
2023/02/11 08:28:52;;;;;;;34.80;14.60;;;;;;;3.07;100.00;101898.66;109001;1257;59274;-82
2023/02/11 08:31:43;;;;;;;36.70;15.60;;;;;;;3.11;100.00;101894.88;108965;1259;75878;-82
2023/02/11 08:34:33;;;;;;;31.40;13.00;;;;;;;3.31;100.00;101893.98;108995;1257;67082;-83
2023/02/11 08:37:22;;;;;;;25.60;12.20;;;;;;;3.50;100.00;101893.64;108996;1257;72280;-81
2023/02/11 08:40:11;;;;;;;30.50;12.70;;;;;;;3.74;100.00;101893.80;108896;1258;59939;-81
2023/02/11 08:43:01;;;;;;;39.30;17.70;;;;;;;3.84;100.00;101892.13;108992;1258;61304;-82
2023/02/11 08:45:50;;;;;;;96.40;38.90;;;;;;;4.07;100.00;101891.93;108967;1259;75352;-83
2023/02/11 08:48:40;;;;;;;68.90;31.20;;;;;;;4.07;100.00;101893.23;108981;1257;70307;-82
2023/02/11 08:51:30;;;;;;;43.40;21.30;;;;;;;4.13;100.00;101891.46;108978;1256;73666;-82
2023/02/11 08:54:20;;;;;;;38.20;19.60;;;;;;;4.19;100.00;101884.70;108881;1257;60665;-83
2023/02/11 08:57:09;;;;;;;25.50;10.50;;;;;;;4.26;100.00;101878.82;108895;1257;60289;-82
2023/02/11 08:59:58;;;;;;;28.70;12.90;;;;;;;4.20;100.00;101880.81;108949;1259;73386;-83
2023/02/11 09:02:47;;;;;;;19.90;10.60;;;;;;;4.34;100.00;101875.19;109003;1258;69546;-83
2023/02/11 09:05:42;;;;;;;19.80;10.40;;;;;;;4.35;100.00;101869.04;108953;1257;73408;-83
2023/02/11 09:08:38;;;;;;;24.00;10.90;;;;;;;4.34;100.00;101865.44;108956;1258;59296;-83
2023/02/11 09:11:31;;;;;;;23.00;9.70;;;;;;;4.38;100.00;101864.47;108876;1257;61569;-83
2023/02/11 09:14:20;;;;;;;20.50;8.80;;;;;;;4.42;100.00;101860.56;109000;1261;75638;-83
2023/02/11 09:17:09;;;;;;;23.00;8.40;;;;;;;4.31;100.00;101857.52;108996;1258;69942;-83
2023/02/11 09:20:00;;;;;;;18.00;7.50;;;;;;;4.29;100.00;101851.02;108910;1257;73839;-83
2023/02/11 09:22:49;;;;;;;19.30;7.70;;;;;;;4.25;100.00;101850.38;108861;1257;61165;-83
2023/02/11 09:25:39;;;;;;;21.30;7.20;;;;;;;4.29;100.00;101842.83;108870;1257;60648;-83
2023/02/11 09:28:28;;;;;;;17.90;7.80;;;;;;;4.34;100.00;101838.17;108888;1258;75018;-83
2023/02/11 09:31:20;;;;;;;21.50;8.80;;;;;;;4.37;100.00;101830.77;108899;1257;67089;-84
2023/02/11 09:34:10;;;;;;;18.80;7.20;;;;;;;4.41;100.00;101824.88;108847;1258;73591;-83
2023/02/11 09:36:58;;;;;;;20.80;7.60;;;;;;;4.47;100.00;101813.84;108872;1259;60242;-84
2023/02/11 09:39:47;;;;;;;19.40;8.60;;;;;;;4.58;100.00;101810.39;108850;1257;59603;-84
2023/02/11 09:42:41;;;;;;;20.20;8.50;;;;;;;4.65;100.00;101803.78;109005;1257;75661;-84
2023/02/11 09:45:29;;;;;;;20.40;8.50;;;;;;;4.76;100.00;101798.05;108841;1261;69950;-83
2023/02/11 09:48:20;;;;;;;18.30;8.50;;;;;;;4.88;100.00;101796.24;108921;1257;72492;-84
2023/02/11 09:51:25;;;;;;;14.80;8.10;;;;;;;5.07;100.00;101794.20;108981;1257;60209;-83
2023/02/11 09:54:25;;;;;;;17.10;7.50;;;;;;;5.15;100.00;101785.00;108860;1261;61525;-84
2023/02/11 09:57:14;;;;;;;24.20;9.20;;;;;;;5.28;100.00;101781.59;108887;1257;73725;-84
2023/02/11 10:00:27;;;;;;;20.00;9.20;;;;;;;5.28;100.00;101769.29;108878;1257;68439;-83
2023/02/11 10:03:29;;;;;;;21.50;9.00;;;;;;;5.06;100.00;101766.11;108802;1258;72346;-84
2023/02/11 10:06:26;;;;;;;19.10;9.40;;;;;;;4.95;100.00;101751.95;108929;1257;59036;-84
2023/02/11 10:10:01;;;;;;;16.30;8.20;;;;;;;4.86;100.00;101745.80;108980;1258;61626;-83
2023/02/11 10:13:10;;;;;;;22.80;8.50;;;;;;;4.91;100.00;101736.52;108902;1257;75739;-84
2023/02/11 10:16:40;;;;;;;25.40;8.70;;;;;;;4.82;100.00;101733.71;108873;1257;69636;-84
2023/02/11 10:19:35;;;;;;;22.50;9.60;;;;;;;4.80;100.00;101732.13;108678;1258;73221;-83
2023/02/11 10:22:31;;;;;;;17.00;7.90;;;;;;;4.70;100.00;101724.52;108890;1257;59564;-83
2023/02/11 10:25:25;;;;;;;18.10;8.50;;;;;;;4.75;100.00;101719.27;108866;1259;59627;-84
2023/02/11 10:28:15;;;;;;;20.40;8.90;;;;;;;4.79;100.00;101717.92;108983;1257;74385;-84
2023/02/11 10:31:20;;;;;;;17.70;7.80;;;;;;;4.77;100.00;101708.97;108985;1257;69106;-83
2023/02/11 10:34:10;;;;;;;17.90;6.90;;;;;;;4.78;100.00;101707.80;108918;1258;73847;-84
2023/02/11 10:36:59;;;;;;;14.10;6.40;;;;;;;4.81;100.00;101700.48;108853;1257;61040;-84
2023/02/11 10:39:48;;;;;;;19.50;8.50;;;;;;;4.84;100.00;101696.80;108828;1258;59316;-84
2023/02/11 10:42:37;;;;;;;16.50;6.70;;;;;;;4.77;100.00;101690.39;108848;1257;72723;-83
2023/02/11 10:45:48;;;;;;;12.80;7.00;;;;;;;4.69;100.00;101684.90;108910;1257;68453;-83
2023/02/11 10:48:50;;;;;;;14.60;7.20;;;;;;;4.77;100.00;101679.17;108868;1258;72658;-83
2023/02/11 10:51:40;;;;;;;16.40;7.10;;;;;;;4.66;100.00;101677.91;108958;1257;59411;-83
2023/02/11 10:54:29;;;;;;;17.90;7.10;;;;;;;4.56;100.00;101676.76;108983;1257;59594;-83
2023/02/11 10:57:18;;;;;;;19.10;7.60;;;;;;;4.47;100.00;101673.27;108979;1257;75826;-84
2023/02/11 11:00:41;;;;;;;19.90;7.90;;;;;;;4.50;100.00;101664.92;108894;1258;69354;-84
2023/02/11 11:03:37;;;;;;;18.50;7.60;;;;;;;4.52;100.00;101651.72;108944;1259;70620;-83
2023/02/11 11:06:30;;;;;;;17.00;7.00;;;;;;;4.61;100.00;101648.27;108830;1257;59367;-84
2023/02/11 11:09:29;;;;;;;21.70;7.70;;;;;;;4.68;100.00;101647.34;108880;1257;60360;-83
2023/02/11 11:12:24;;;;;;;16.10;6.90;;;;;;;4.73;100.00;101642.08;108935;1258;75703;-84
2023/02/11 11:15:15;;;;;;;19.60;7.90;;;;;;;4.69;100.00;101636.36;108997;1257;69315;-84
2023/02/11 11:18:17;;;;;;;17.50;7.50;;;;;;;4.70;100.00;101632.54;108866;1257;70942;-83
2023/02/11 11:21:26;;;;;;;23.90;8.30;;;;;;;4.72;100.00;101632.32;108970;1257;60607;-83
2023/02/11 11:24:30;;;;;;;19.80;7.60;;;;;;;4.71;100.00;101626.99;108824;1262;59398;-84
2023/02/11 11:27:21;;;;;;;19.00;8.30;;;;;;;4.64;100.00;101623.09;108990;1257;75299;-83
2023/02/11 11:30:14;;;;;;;16.90;8.00;;;;;;;4.61;100.00;101612.39;108878;1257;69543;-83
2023/02/11 11:33:05;;;;;;;18.70;7.40;;;;;;;4.62;100.00;101599.05;108977;1257;72689;-83
2023/02/11 11:36:00;;;;;;;18.20;7.20;;;;;;;4.67;100.00;101592.65;108835;1259;60667;-91
2023/02/11 11:38:57;;;;;;;14.10;6.30;;;;;;;4.70;100.00;101586.14;108989;1257;61002;-88
2023/02/11 11:41:56;;;;;;;14.90;6.10;;;;;;;4.72;100.00;101582.95;108790;1257;75649;-83
2023/02/11 11:44:45;;;;;;;18.80;7.40;;;;;;;4.71;100.00;101586.42;108954;1257;68594;-83
2023/02/11 11:47:39;;;;;;;18.00;7.80;;;;;;;4.81;100.00;101586.02;108802;1257;70744;-83
2023/02/11 11:50:41;;;;;;;18.90;6.50;;;;;;;4.82;100.00;101573.97;108860;1257;60475;-83
2023/02/11 11:53:44;;;;;;;14.60;6.50;;;;;;;4.74;100.00;101567.42;108860;1257;59587;-84
2023/02/11 11:56:35;;;;;;;14.60;6.10;;;;;;;4.56;100.00;101568.46;108824;1258;74719;-83
2023/02/11 11:59:24;;;;;;;15.40;6.50;;;;;;;4.55;100.00;101561.05;108871;1257;67024;-83
2023/02/11 12:02:25;;;;;;;19.90;6.60;;;;;;;4.53;100.00;101559.48;108947;1258;73298;-84
2023/02/11 12:05:17;;;;;;;17.60;6.60;;;;;;;4.47;100.00;101544.13;108921;1261;59223;-83
2023/02/11 12:08:27;;;;;;;14.80;6.10;;;;;;;4.57;100.00;101541.14;108965;1257;60713;-84
2023/02/11 12:11:23;;;;;;;14.50;6.40;;;;;;;4.62;100.00;101524.89;108793;1261;74729;-83
2023/02/11 12:15:05;;;;;;;13.70;6.70;;;;;;;4.70;100.00;101513.82;108892;1258;68632;-83
2023/02/11 12:18:00;;;;;;;16.00;7.00;;;;;;;4.81;100.00;101518.65;108376;1258;73866;-83
2023/02/11 12:21:03;;;;;;;13.90;6.60;;;;;;;4.85;100.00;101522.05;108675;1257;230354;-84
2023/02/11 12:24:04;;;;;;;16.90;7.40;;;;;;;4.93;100.00;101512.88;108838;1257;59947;-84
2023/02/11 12:26:57;;;;;;;17.10;8.10;;;;;;;4.93;100.00;101506.63;108849;1257;75368;-84
2023/02/11 12:30:05;;;;;;;18.40;6.90;;;;;;;4.95;100.00;101498.70;108825;1257;69925;-84
2023/02/11 12:33:09;;;;;;;17.40;8.00;;;;;;;4.93;100.00;101497.21;108857;1257;73945;-84
2023/02/11 12:36:03;;;;;;;19.20;8.30;;;;;;;4.89;100.00;101496.79;108825;1257;60252;-84
2023/02/11 12:39:14;;;;;;;19.10;8.90;;;;;;;4.83;100.00;101497.77;108916;1257;60217;-84
2023/02/11 12:45:31;;;;;;;18.10;8.10;;;;;;;4.83;100.00;101481.09;108886;1257;67475;-84
2023/02/11 12:48:41;;;;;;;21.90;7.90;;;;;;;4.79;100.00;101471.33;108857;1257;73368;-84
2023/02/11 12:51:46;;;;;;;53.70;18.10;;;;;;;4.79;100.00;101464.63;108773;1257;60013;-84
2023/02/11 12:55:14;;;;;;;54.70;21.10;;;;;;;4.82;100.00;101464.07;108859;1257;59440;-84
2023/02/11 12:58:03;;;;;;;174.50;63.10;;;;;;;4.82;100.00;101461.61;108890;1257;76655;-84
2023/02/11 13:01:03;;;;;;;95.10;42.40;;;;;;;4.81;100.00;101461.95;108845;1257;68644;-83
2023/02/11 13:03:55;;;;;;;98.20;48.80;;;;;;;4.78;100.00;101460.63;108880;1257;73562;-84
2023/02/11 13:06:47;;;;;;;57.80;28.90;;;;;;;4.83;100.00;101450.14;108888;1257;59007;-84
2023/02/11 13:09:42;;;;;;;26.50;12.70;;;;;;;4.72;100.00;101444.40;108828;1257;59911;-84
2023/02/11 13:15:44;;;;;;;21.00;9.10;;;;;;;4.68;100.00;101442.85;108849;1257;69117;-84